TFM - Tactical Decision Aid (Experimental) INFO Settings
ID: Runway Winds: CIG/VIS Threshold: METAR Board: Map:

KGLH - Greenville-Mid Delta Rgnl

Updated at: 0903 UTC 20 Oct 2017
Latest TAF at: 0520 UTC 20 Oct 2017

TAF Board

Time0853Z20/10Z20/11Z20/12Z20/13Z20/14Z20/15Z20/16Z20/17Z20/18Z20/19Z20/20Z20/21Z20/22Z
TypeOBSPRVLPRVLPRVLPRVLPRVLPRVLPRVLPRVLPRVLPRVLPRVLPRVLPRVL
VIS10>6>6>6>6>6>6>6>6>6>6>6>6>6
CIG----------------------------
CoverCLRSKCSKCSKCSKCFEWFEWFEWFEWFEWFEWFEWFEWFEW
FltCatVFRVFRVFRVFRVFRVFRVFRVFRVFRVFRVFRVFRVFRVFR
WX----------------------------
WDir11070707070130130130130130130130130130
WSpd54444777777777
WGst----------------------------
TAF
KGLH 200520Z 2006/2106 07004KT P6SM SKC
  FM201330 13007KT P6SM FEW250


METAR Board

Time19/22Z 19/23Z 20/00Z 20/01Z 20/02Z 20/03Z 20/04Z 20/05Z 20/06Z 20/07Z 20/08Z 20/09Z
VIS10 10 10 10 10 10 10 10 10 10 10 10
CIG-- -- -- -- -- -- -- -- -- -- -- --
CoverCLRCLRCLRCLRCLRCLRCLRCLRCLRCLRCLRCLR
FltCatVFRVFRVFRVFRVFRVFRVFRVFRVFRVFRVFRVFR
WX------------------------
WDir1207016010011001200110110120110
WSpd6 4 6 4 4 0 3 0 4 3 4 5
WGst-- -- -- -- -- -- -- -- -- -- -- --
METAR
KGLH 192153Z 12006KT 10SM CLR 26/07 A3015 RMK AO2 SLP218 T02560072
KGLH 192253Z 07004KT 10SM CLR 23/09 A3015 RMK AO2 SLP218 T02330089
KGLH 192353Z AUTO 16006KT 10SM CLR 17/09 A3016 RMK AO2 SLP221 T01720094 10267 20172 53001
KGLH 200053Z AUTO 10004KT 10SM CLR 17/09 A3017 RMK AO2 SLP224 T01670089
KGLH 200153Z AUTO 11004KT 10SM CLR 17/09 A3017 RMK AO2 SLP225 T01670089
KGLH 200253Z AUTO 00000KT 10SM CLR 14/09 A3019 RMK AO2 SLP229 T01440089 53009
KGLH 200353Z AUTO 12003KT 10SM CLR 13/08 A3019 RMK AO2 SLP231 T01330083
KGLH 200453Z AUTO 00000KT 10SM CLR 14/08 A3019 RMK AO2 SLP229 T01390083
KGLH 200553Z AUTO 11004KT 10SM CLR 12/09 A3019 RMK AO2 SLP228 T01170089 10200 20117 402670061 58001
KGLH 200653Z AUTO 11003KT 10SM CLR 12/09 A3019 RMK AO2 SLP227 T01220094
KGLH 200753Z AUTO 12004KT 10SM CLR 12/09 A3019 RMK AO2 SLP227 T01220094
KGLH 200853Z AUTO 11005KT 10SM CLR 12/10 A3018 RMK AO2 SLP226 T01220100 58002

TAF/METAR Board Legend

Potential Impact
  None Marginal Slight Moderate High
Visibility (sm) >5 3≤X≤5 2≤X<3 0.5≤X<2 <0.5
Ceiling (100 ft) >30 10≤X≤30 6≤X<10 2≤X<6 <2
Wind Speed (kt) <10 10≤X<20 20≤X<30 ≥30
Wind Gust (kt) <15 15≤X<25 25≤X<35 ≥35
Weather No Wx Reported VCTS -TS,-FZRA TS,FZRA +TS,+FZRA